Time;durP1;ratioP1;P1;durP2;ratioP2;P2;SDS_P1;SDS_P2;PMS_P1;PMS_P2;Temp;Humidity;BMP_temperature;BMP_pressure;BME280_temperature;BME280_humidity;BME280_pressure;Samples;Min_cycle;Max_cycle;Signal;HPM_P1;HPM_P2
2021/11/14 00:00:49;;;;;;;15.55;6.82;;;;;;;;;;5105983;28;20072;-75
2021/11/14 00:03:15;;;;;;;21.88;6.55;;;;;;;;;;5124127;28;20028;-73
2021/11/14 00:05:43;;;;;;;18.23;7.18;;;;;;;;;;5124362;28;20106;-74
2021/11/14 00:08:12;;;;;;;17.02;6.75;;;;;;;;;;5124212;28;20031;-75
2021/11/14 00:10:40;;;;;;;15.93;6.65;;;;;;;;;;5124107;28;20023;-74
2021/11/14 00:13:05;;;;;;;14.63;6.95;;;;;;;;;;5124116;28;20048;-74
2021/11/14 00:15:31;;;;;;;15.05;6.40;;;;;;;;;;5105623;28;20027;-75
2021/11/14 00:17:57;;;;;;;14.48;6.40;;;;;;;;;;5123919;28;20082;-76
2021/11/14 00:20:24;;;;;;;22.75;6.80;;;;;;;;;;5124094;28;20031;-76
2021/11/14 00:22:50;;;;;;;15.15;6.60;;;;;;;;;;5107677;28;20031;-75
2021/11/14 00:25:17;;;;;;;17.98;7.45;;;;;;;;;;5108909;28;20027;-73
2021/11/14 00:27:47;;;;;;;19.83;6.63;;;;;;;;;;5109038;28;20016;-75
2021/11/14 00:30:13;;;;;;;20.40;7.60;;;;;;;;;;5109575;28;20028;-75
2021/11/14 00:32:40;;;;;;;21.70;7.15;;;;;;;;;;5128124;28;20032;-75
2021/11/14 00:35:07;;;;;;;13.27;6.65;;;;;;;;;;5127930;28;20026;-74
2021/11/14 00:37:35;;;;;;;16.13;6.43;;;;;;;;;;5127692;28;20028;-74
2021/11/14 00:40:02;;;;;;;18.05;6.22;;;;;;;;;;5127976;28;20110;-74
2021/11/14 00:42:28;;;;;;;11.90;6.50;;;;;;;;;;5109204;28;20050;-74
2021/11/14 00:44:53;;;;;;;13.20;6.05;;;;;;;;;;5127714;28;20020;-75
2021/11/14 00:47:18;;;;;;;16.08;7.57;;;;;;;;;;5127876;28;20023;-75
2021/11/14 00:49:44;;;;;;;19.65;7.57;;;;;;;;;;5127913;28;20026;-74
2021/11/14 00:52:09;;;;;;;14.95;6.78;;;;;;;;;;5127683;28;20045;-74
2021/11/14 00:54:35;;;;;;;15.75;6.22;;;;;;;;;;5127483;28;20051;-75
2021/11/14 00:57:00;;;;;;;24.48;7.20;;;;;;;;;;5109253;28;20379;-74
2021/11/14 00:59:26;;;;;;;18.17;7.38;;;;;;;;;;5127499;28;20031;-77
2021/11/14 01:01:51;;;;;;;16.35;7.15;;;;;;;;;;5127417;28;20022;-75
2021/11/14 01:04:17;;;;;;;16.80;7.07;;;;;;;;;;5127724;28;20034;-74
2021/11/14 01:06:43;;;;;;;17.80;6.78;;;;;;;;;;5127490;28;20016;-74
2021/11/14 01:09:08;;;;;;;21.60;7.07;;;;;;;;;;5108997;28;20377;-74
2021/11/14 01:11:34;;;;;;;23.30;7.10;;;;;;;;;;5127435;28;20031;-75
2021/11/14 01:13:59;;;;;;;16.92;7.43;;;;;;;;;;5127186;28;20061;-75
2021/11/14 01:16:25;;;;;;;21.15;7.65;;;;;;;;;;5108641;28;20026;-75
2021/11/14 01:18:51;;;;;;;15.43;7.30;;;;;;;;;;5108603;28;20039;-75
2021/11/14 01:21:16;;;;;;;16.13;6.88;;;;;;;;;;5126788;28;20402;-76
2021/11/14 01:23:44;;;;;;;14.88;6.90;;;;;;;;;;5127236;28;20027;-74
2021/11/14 01:26:10;;;;;;;16.80;6.60;;;;;;;;;;5126767;28;20049;-74
2021/11/14 01:28:35;;;;;;;13.77;6.88;;;;;;;;;;5127423;28;20099;-74
2021/11/14 01:31:01;;;;;;;15.95;7.13;;;;;;;;;;5126979;28;20020;-76
2021/11/14 01:33:29;;;;;;;14.85;6.43;;;;;;;;;;5125876;28;20023;-74
2021/11/14 01:35:56;;;;;;;13.70;6.65;;;;;;;;;;5126888;28;20031;-75
2021/11/14 01:38:24;;;;;;;16.45;6.78;;;;;;;;;;5108341;28;20024;-75
2021/11/14 01:41:03;;;;;;;19.67;7.25;;;;;;;;;;5126789;28;20051;-75
2021/11/14 01:43:50;;;;;;;15.55;6.95;;;;;;;;;;5126713;28;20027;-74
2021/11/14 01:46:17;;;;;;;15.93;6.80;;;;;;;;;;5107727;28;20023;-75
2021/11/14 01:48:43;;;;;;;14.15;7.53;;;;;;;;;;5126506;28;20033;-75
2021/11/14 01:51:09;;;;;;;18.25;8.20;;;;;;;;;;5108166;28;20027;-74
2021/11/14 01:53:36;;;;;;;19.50;8.13;;;;;;;;;;5108487;28;20026;-74
2021/11/14 01:56:06;;;;;;;11.63;6.78;;;;;;;;;;5126328;28;20096;-75
2021/11/14 01:58:32;;;;;;;13.63;6.88;;;;;;;;;;5126607;28;20023;-74
2021/11/14 02:01:05;;;;;;;14.05;7.20;;;;;;;;;;5126650;28;20035;-74
2021/11/14 02:03:32;;;;;;;17.40;7.07;;;;;;;;;;5108086;28;20020;-74
2021/11/14 02:05:59;;;;;;;19.30;8.45;;;;;;;;;;5126694;28;20394;-74
2021/11/14 02:08:25;;;;;;;15.27;7.65;;;;;;;;;;5126409;28;20035;-73
2021/11/14 02:10:50;;;;;;;17.60;7.93;;;;;;;;;;5107130;28;20023;-74
2021/11/14 02:13:17;;;;;;;22.38;7.80;;;;;;;;;;5125855;28;20038;-74
2021/11/14 02:15:43;;;;;;;16.77;7.40;;;;;;;;;;5126183;28;20012;-76
2021/11/14 02:18:11;;;;;;;17.38;8.07;;;;;;;;;;5126052;28;20051;-74
2021/11/14 02:20:38;;;;;;;18.42;7.80;;;;;;;;;;5126125;28;20028;-75
2021/11/14 02:23:06;;;;;;;15.15;7.38;;;;;;;;;;5125854;28;20024;-75
2021/11/14 02:25:32;;;;;;;15.07;7.68;;;;;;;;;;5125990;28;20363;-74
2021/11/14 02:27:58;;;;;;;14.80;7.80;;;;;;;;;;5125881;28;20051;-75
2021/11/14 02:30:26;;;;;;;16.60;7.88;;;;;;;;;;5126268;28;20065;-77
2021/11/14 02:32:52;;;;;;;18.35;8.07;;;;;;;;;;5106664;28;20020;-75
2021/11/14 02:35:19;;;;;;;15.65;7.65;;;;;;;;;;5124986;28;20054;-75
2021/11/14 02:37:44;;;;;;;20.23;7.20;;;;;;;;;;5107181;28;20043;-73
2021/11/14 02:40:11;;;;;;;16.60;7.63;;;;;;;;;;5107470;28;20024;-76
2021/11/14 02:42:37;;;;;;;16.98;7.72;;;;;;;;;;5125582;28;20185;-76
2021/11/14 02:45:05;;;;;;;19.33;7.90;;;;;;;;;;5106668;28;20463;-74
2021/11/14 02:47:31;;;;;;;15.63;7.57;;;;;;;;;;5106959;28;20085;-76
2021/11/14 02:49:56;;;;;;;13.98;7.13;;;;;;;;;;5107160;28;20023;-74
2021/11/14 02:52:22;;;;;;;18.65;7.00;;;;;;;;;;5125490;28;20066;-75
2021/11/14 02:54:47;;;;;;;12.18;6.85;;;;;;;;;;5125038;28;20104;-75
2021/11/14 02:57:13;;;;;;;12.05;6.72;;;;;;;;;;5107042;28;20019;-74
2021/11/14 02:59:38;;;;;;;15.23;6.43;;;;;;;;;;5125244;28;20028;-75
2021/11/14 03:02:04;;;;;;;16.05;6.80;;;;;;;;;;5124994;28;20045;-74
2021/11/14 03:04:30;;;;;;;10.25;6.65;;;;;;;;;;5125477;28;20411;-74
2021/11/14 03:06:57;;;;;;;11.98;6.95;;;;;;;;;;5106481;28;20087;-76
2021/11/14 03:09:24;;;;;;;15.15;7.18;;;;;;;;;;5106971;28;20125;-76
2021/11/14 03:11:55;;;;;;;15.57;6.80;;;;;;;;;;5125209;28;20039;-75
2021/11/14 03:14:21;;;;;;;13.30;7.63;;;;;;;;;;5124964;28;20437;-74
2021/11/14 03:16:47;;;;;;;18.25;7.20;;;;;;;;;;5124954;28;20053;-73
2021/11/14 03:19:13;;;;;;;14.88;7.38;;;;;;;;;;5124894;28;20031;-74
2021/11/14 03:21:39;;;;;;;12.43;6.75;;;;;;;;;;5124832;28;20028;-74
2021/11/14 03:24:05;;;;;;;16.83;7.18;;;;;;;;;;5124833;28;20039;-75
2021/11/14 03:26:31;;;;;;;17.92;8.10;;;;;;;;;;5106449;28;20016;-75
2021/11/14 03:28:57;;;;;;;18.05;6.97;;;;;;;;;;5125363;28;20065;-75
2021/11/14 03:31:25;;;;;;;13.65;7.63;;;;;;;;;;5106255;28;20530;-75
2021/11/14 03:33:50;;;;;;;14.40;8.18;;;;;;;;;;5124898;28;20046;-74
2021/11/14 03:36:17;;;;;;;16.48;8.07;;;;;;;;;;5106117;28;20480;-74
2021/11/14 03:38:52;;;;;;;16.15;7.35;;;;;;;;;;5124587;28;20035;-75
2021/11/14 03:41:30;;;;;;;13.00;7.32;;;;;;;;;;5124433;28;20048;-75
2021/11/14 03:43:55;;;;;;;17.63;7.25;;;;;;;;;;5124407;28;20024;-75
2021/11/14 03:46:21;;;;;;;17.08;7.80;;;;;;;;;;5124338;28;20427;-76
2021/11/14 03:48:49;;;;;;;17.00;7.22;;;;;;;;;;5124397;28;20053;-75
2021/11/14 03:51:15;;;;;;;17.88;7.10;;;;;;;;;;5124377;28;20019;-75
2021/11/14 03:53:41;;;;;;;13.23;7.00;;;;;;;;;;5124186;28;20020;-74
2021/11/14 03:56:07;;;;;;;17.27;7.40;;;;;;;;;;5104880;28;20067;-75
2021/11/14 03:58:34;;;;;;;15.73;7.78;;;;;;;;;;5124301;28;20020;-75
2021/11/14 04:01:03;;;;;;;13.73;7.35;;;;;;;;;;5105175;28;20031;-75
2021/11/14 04:03:29;;;;;;;18.90;8.30;;;;;;;;;;5124209;28;20035;-77
2021/11/14 04:05:55;;;;;;;16.63;8.80;;;;;;;;;;5105699;28;20487;-75
2021/11/14 04:08:23;;;;;;;17.92;8.52;;;;;;;;;;5124268;28;20019;-75
2021/11/14 04:10:50;;;;;;;18.38;8.02;;;;;;;;;;5124442;28;20039;-74
2021/11/14 04:13:17;;;;;;;17.20;8.63;;;;;;;;;;5124305;28;20031;-76
2021/11/14 04:15:43;;;;;;;16.02;8.55;;;;;;;;;;5124028;28;20027;-74
2021/11/14 04:18:11;;;;;;;15.52;7.72;;;;;;;;;;5123948;28;20027;-74
2021/11/14 04:20:39;;;;;;;17.35;8.23;;;;;;;;;;5123656;28;20053;-75
2021/11/14 04:23:05;;;;;;;18.17;8.07;;;;;;;;;;5123929;28;20028;-76
2021/11/14 04:25:30;;;;;;;11.82;7.20;;;;;;;;;;5124072;28;20020;-75
2021/11/14 04:27:57;;;;;;;16.48;8.23;;;;;;;;;;5123787;28;20311;-77
2021/11/14 04:30:24;;;;;;;13.35;7.53;;;;;;;;;;5105603;28;20035;-77
2021/11/14 04:32:50;;;;;;;13.60;7.32;;;;;;;;;;5105376;28;20026;-75
2021/11/14 04:35:16;;;;;;;14.07;6.68;;;;;;;;;;5105507;28;20254;-76
2021/11/14 04:37:42;;;;;;;17.67;7.32;;;;;;;;;;5123872;28;20136;-76
2021/11/14 04:40:09;;;;;;;13.80;6.55;;;;;;;;;;5123858;28;20531;-75
2021/11/14 04:42:35;;;;;;;14.13;6.35;;;;;;;;;;5105535;28;20016;-76
2021/11/14 04:45:00;;;;;;;16.50;7.25;;;;;;;;;;5123905;28;20027;-74
2021/11/14 04:47:26;;;;;;;15.30;6.78;;;;;;;;;;5105389;28;20380;-76
2021/11/14 04:49:51;;;;;;;15.63;6.72;;;;;;;;;;5123779;28;20033;-74
2021/11/14 04:52:17;;;;;;;17.00;6.93;;;;;;;;;;5123420;28;20519;-76
2021/11/14 04:54:43;;;;;;;11.30;6.57;;;;;;;;;;5123495;28;20044;-74
2021/11/14 04:57:09;;;;;;;11.93;6.38;;;;;;;;;;5105304;28;20451;-74
2021/11/14 04:59:35;;;;;;;14.98;6.28;;;;;;;;;;5105539;28;20030;-75
2021/11/14 05:02:00;;;;;;;10.32;5.97;;;;;;;;;;5105282;28;20020;-75
2021/11/14 05:04:26;;;;;;;12.50;6.30;;;;;;;;;;5123753;28;20026;-76
2021/11/14 05:06:51;;;;;;;10.60;5.53;;;;;;;;;;5105266;28;20024;-75
2021/11/14 05:09:17;;;;;;;12.20;5.80;;;;;;;;;;5127112;28;20073;-75
2021/11/14 05:11:42;;;;;;;9.77;5.35;;;;;;;;;;5143039;27;20024;-75
2021/11/14 05:14:08;;;;;;;8.80;5.32;;;;;;;;;;5127433;28;20028;-74
2021/11/14 05:16:33;;;;;;;8.73;4.63;;;;;;;;;;5127097;28;20030;-75
2021/11/14 05:18:58;;;;;;;9.05;4.90;;;;;;;;;;5108876;28;20103;-76
2021/11/14 05:21:24;;;;;;;8.88;5.45;;;;;;;;;;5127214;28;20026;-75
2021/11/14 05:23:50;;;;;;;9.60;5.40;;;;;;;;;;5108803;28;20031;-77
2021/11/14 05:26:15;;;;;;;11.10;4.60;;;;;;;;;;5126545;28;20088;-75
2021/11/14 05:28:41;;;;;;;9.27;5.30;;;;;;;;;;5127224;28;20049;-77
2021/11/14 05:31:08;;;;;;;7.07;4.95;;;;;;;;;;5127062;28;20016;-75
2021/11/14 05:33:34;;;;;;;8.43;4.95;;;;;;;;;;5108254;28;20032;-77
2021/11/14 05:35:59;;;;;;;8.68;5.50;;;;;;;;;;5126946;28;20367;-76
2021/11/14 05:38:24;;;;;;;9.50;4.80;;;;;;;;;;5127107;28;20031;-75
2021/11/14 05:40:50;;;;;;;7.32;4.13;;;;;;;;;;5126672;28;20029;-76
2021/11/14 05:43:16;;;;;;;7.47;4.70;;;;;;;;;;5108586;28;20064;-76
2021/11/14 05:45:42;;;;;;;9.57;4.65;;;;;;;;;;5108455;28;20349;-76
2021/11/14 05:48:10;;;;;;;8.98;5.00;;;;;;;;;;5127006;28;20023;-76
2021/11/14 05:50:37;;;;;;;11.07;5.07;;;;;;;;;;5126333;28;20054;-77
2021/11/14 05:53:03;;;;;;;9.93;4.93;;;;;;;;;;5126931;28;20046;-75
2021/11/14 05:55:28;;;;;;;8.77;4.45;;;;;;;;;;5126294;28;20043;-76
2021/11/14 05:57:57;;;;;;;8.85;5.30;;;;;;;;;;5126268;28;20024;-75
2021/11/14 06:00:37;;;;;;;10.85;4.88;;;;;;;;;;5126589;28;20108;-75
2021/11/14 06:03:08;;;;;;;11.85;5.65;;;;;;;;;;5126733;28;20023;-76
2021/11/14 06:05:40;;;;;;;8.15;4.70;;;;;;;;;;5126097;28;20341;-75
2021/11/14 06:08:07;;;;;;;10.30;4.63;;;;;;;;;;5126451;28;20026;-75
2021/11/14 06:10:33;;;;;;;7.72;4.93;;;;;;;;;;5126410;28;20023;-76
2021/11/14 06:12:59;;;;;;;9.48;4.57;;;;;;;;;;5126200;28;20027;-76
2021/11/14 06:15:25;;;;;;;8.00;4.63;;;;;;;;;;5107892;28;20027;-77
2021/11/14 06:17:50;;;;;;;7.97;4.78;;;;;;;;;;5141721;27;20024;-78
2021/11/14 06:20:18;;;;;;;11.43;4.38;;;;;;;;;;5107288;28;20030;-74
2021/11/14 06:22:43;;;;;;;9.85;4.78;;;;;;;;;;5126449;28;20324;-75
2021/11/14 06:25:09;;;;;;;6.85;4.50;;;;;;;;;;5126077;28;20030;-77
2021/11/14 06:27:35;;;;;;;8.25;4.65;;;;;;;;;;5125875;28;20033;-75
2021/11/14 06:30:03;;;;;;;8.18;4.75;;;;;;;;;;5125945;28;20020;-76
2021/11/14 06:32:28;;;;;;;9.63;5.05;;;;;;;;;;5107371;28;20434;-77
2021/11/14 06:34:54;;;;;;;12.10;5.05;;;;;;;;;;5125903;28;20020;-75
2021/11/14 06:37:19;;;;;;;9.43;4.82;;;;;;;;;;5125692;28;20027;-76
2021/11/14 06:39:44;;;;;;;9.27;4.45;;;;;;;;;;5125681;28;20032;-76
2021/11/14 06:42:10;;;;;;;9.25;5.15;;;;;;;;;;5107289;28;20035;-76
2021/11/14 06:44:35;;;;;;;10.60;4.97;;;;;;;;;;5125671;28;20071;-76
2021/11/14 06:47:01;;;;;;;8.20;4.32;;;;;;;;;;5107038;28;20363;-75
2021/11/14 06:49:26;;;;;;;7.05;4.78;;;;;;;;;;5106984;28;20038;-75
2021/11/14 06:51:52;;;;;;;7.65;4.95;;;;;;;;;;5106388;28;20028;-76
2021/11/14 06:54:17;;;;;;;9.00;4.60;;;;;;;;;;5124730;28;20065;-76
2021/11/14 06:56:43;;;;;;;6.43;4.65;;;;;;;;;;5125179;28;20034;-75
2021/11/14 06:59:08;;;;;;;8.20;4.60;;;;;;;;;;5125286;28;20034;-75
2021/11/14 07:01:33;;;;;;;10.18;4.82;;;;;;;;;;5106958;28;20118;-74
2021/11/14 07:03:59;;;;;;;7.70;4.50;;;;;;;;;;5125356;28;20035;-76
2021/11/14 07:06:24;;;;;;;8.02;4.63;;;;;;;;;;5125129;28;20075;-75
2021/11/14 07:08:50;;;;;;;10.50;4.40;;;;;;;;;;5124954;28;20019;-77
2021/11/14 07:11:17;;;;;;;7.65;3.97;;;;;;;;;;5124991;28;20439;-76
2021/11/14 07:13:44;;;;;;;11.88;5.07;;;;;;;;;;5125060;28;20055;-77
2021/11/14 07:16:09;;;;;;;8.07;5.93;;;;;;;;;;5124226;28;20058;-76
2021/11/14 07:18:34;;;;;;;12.75;5.95;;;;;;;;;;5124075;28;20023;-74
2021/11/14 07:21:00;;;;;;;12.35;6.07;;;;;;;;;;5125093;28;20083;-75
2021/11/14 07:23:25;;;;;;;9.15;5.45;;;;;;;;;;5105915;28;20023;-75
2021/11/14 07:25:52;;;;;;;8.93;5.57;;;;;;;;;;5124638;28;20038;-75
2021/11/14 07:28:17;;;;;;;10.52;5.53;;;;;;;;;;5106506;28;20030;-75
2021/11/14 07:30:43;;;;;;;10.50;5.80;;;;;;;;;;5105786;28;20111;-75
2021/11/14 07:33:11;;;;;;;12.05;6.30;;;;;;;;;;5124170;28;20019;-75
2021/11/14 07:35:37;;;;;;;11.02;6.40;;;;;;;;;;5124532;28;20020;-76
2021/11/14 07:38:03;;;;;;;13.95;6.28;;;;;;;;;;5124627;28;20535;-74
2021/11/14 07:40:29;;;;;;;10.35;5.85;;;;;;;;;;5124569;28;20043;-75
2021/11/14 07:42:55;;;;;;;9.07;5.07;;;;;;;;;;5124256;28;20171;-77
2021/11/14 07:45:23;;;;;;;7.53;5.13;;;;;;;;;;5124703;28;20046;-75
2021/11/14 07:47:49;;;;;;;8.93;5.05;;;;;;;;;;5123372;28;20078;-74
2021/11/14 07:50:17;;;;;;;9.77;5.07;;;;;;;;;;5123319;28;20023;-76
2021/11/14 07:52:43;;;;;;;10.93;5.15;;;;;;;;;;5106010;28;20034;-75
2021/11/14 07:55:09;;;;;;;10.77;5.15;;;;;;;;;;5124065;28;20070;-76
2021/11/14 07:57:38;;;;;;;13.50;5.13;;;;;;;;;;5124053;28;20271;-76
2021/11/14 08:00:05;;;;;;;7.50;4.70;;;;;;;;;;5123703;28;20041;-75
2021/11/14 08:02:31;;;;;;;7.13;4.55;;;;;;;;;;5104583;28;20134;-78
2021/11/14 08:04:56;;;;;;;12.55;5.13;;;;;;;;;;5139408;27;20456;-76
2021/11/14 08:07:22;;;;;;;8.80;4.10;;;;;;;;;;5105466;28;20106;-76
2021/11/14 08:09:47;;;;;;;7.15;4.47;;;;;;;;;;5123944;28;20084;-76
2021/11/14 08:12:13;;;;;;;7.00;4.30;;;;;;;;;;5123774;28;20054;-75
2021/11/14 08:14:38;;;;;;;10.77;4.18;;;;;;;;;;5123574;28;20043;-75
2021/11/14 08:17:04;;;;;;;8.57;4.43;;;;;;;;;;5124060;28;20060;-76
2021/11/14 08:19:29;;;;;;;7.30;4.30;;;;;;;;;;5124326;28;20020;-76
2021/11/14 08:21:55;;;;;;;7.82;4.20;;;;;;;;;;5105015;28;20048;-79
2021/11/14 08:24:21;;;;;;;7.38;3.85;;;;;;;;;;5124651;28;20027;-79
2021/11/14 08:26:46;;;;;;;7.50;4.00;;;;;;;;;;5124211;28;20043;-78
2021/11/14 08:29:12;;;;;;;5.80;3.25;;;;;;;;;;5105556;28;20024;-77
2021/11/14 08:31:38;;;;;;;4.93;3.20;;;;;;;;;;5105859;28;20044;-75
2021/11/14 08:34:03;;;;;;;7.20;3.70;;;;;;;;;;5105998;28;20024;-75
2021/11/14 08:36:29;;;;;;;9.73;3.50;;;;;;;;;;5105557;28;20036;-77
2021/11/14 08:38:57;;;;;;;7.43;3.65;;;;;;;;;;5123215;28;20051;-78
2021/11/14 08:41:24;;;;;;;7.68;3.33;;;;;;;;;;5104089;28;20047;-77
2021/11/14 08:43:50;;;;;;;5.45;3.25;;;;;;;;;;5126775;28;20366;-75
2021/11/14 08:46:16;;;;;;;5.65;3.30;;;;;;;;;;5127827;28;20028;-77
2021/11/14 08:48:42;;;;;;;5.70;3.08;;;;;;;;;;5127895;28;20157;-77
2021/11/14 08:51:07;;;;;;;5.75;3.20;;;;;;;;;;5127721;28;20042;-77
2021/11/14 08:53:33;;;;;;;5.70;3.05;;;;;;;;;;5127828;28;20027;-77
2021/11/14 08:55:59;;;;;;;5.25;3.25;;;;;;;;;;5127455;28;20040;-76
2021/11/14 08:58:25;;;;;;;5.75;3.10;;;;;;;;;;5109488;28;20081;-76
2021/11/14 09:00:53;;;;;;;5.43;2.80;;;;;;;;;;5127702;28;20016;-77
2021/11/14 09:03:18;;;;;;;6.00;3.13;;;;;;;;;;5109522;28;20149;-75
2021/11/14 09:05:44;;;;;;;5.05;2.95;;;;;;;;;;5127442;28;20028;-76
2021/11/14 09:08:13;;;;;;;5.50;2.60;;;;;;;;;;5127410;28;20464;-74
2021/11/14 09:10:40;;;;;;;5.47;2.60;;;;;;;;;;5127229;28;20057;-77
2021/11/14 09:13:15;;;;;;;5.43;2.90;;;;;;;;;;5127198;28;20026;-76
2021/11/14 09:15:41;;;;;;;5.28;2.85;;;;;;;;;;5108638;28;20072;-75
2021/11/14 09:18:07;;;;;;;4.32;2.78;;;;;;;;;;5108671;28;20047;-74
2021/11/14 09:20:33;;;;;;;4.28;2.42;;;;;;;;;;5109233;28;20077;-73
2021/11/14 09:22:58;;;;;;;3.70;2.22;;;;;;;;;;5108939;28;20027;-73
2021/11/14 09:25:24;;;;;;;6.30;2.70;;;;;;;;;;5127096;28;20410;-75
2021/11/14 09:27:50;;;;;;;5.20;2.80;;;;;;;;;;5126942;28;20030;-73
2021/11/14 09:30:17;;;;;;;6.13;2.50;;;;;;;;;;5127192;28;20402;-73
2021/11/14 09:32:43;;;;;;;4.22;2.55;;;;;;;;;;5126823;28;20023;-73
2021/11/14 09:35:09;;;;;;;5.07;2.35;;;;;;;;;;5127000;28;20035;-75
2021/11/14 09:37:35;;;;;;;4.10;2.55;;;;;;;;;;5108396;28;20028;-75
2021/11/14 09:40:00;;;;;;;4.22;2.20;;;;;;;;;;5126189;28;20076;-74
2021/11/14 09:42:28;;;;;;;4.45;2.50;;;;;;;;;;5126102;28;20479;-76
2021/11/14 09:44:54;;;;;;;6.22;2.60;;;;;;;;;;5126501;28;20083;-75
2021/11/14 09:47:21;;;;;;;4.72;2.60;;;;;;;;;;5107697;28;20051;-78
2021/11/14 09:49:46;;;;;;;4.28;2.55;;;;;;;;;;5125810;28;20228;-76
2021/11/14 09:52:12;;;;;;;3.78;2.20;;;;;;;;;;5126347;28;20030;-74
2021/11/14 09:54:39;;;;;;;3.42;2.20;;;;;;;;;;5124848;28;20054;-74
2021/11/14 09:57:07;;;;;;;3.20;1.90;;;;;;;;;;5106690;28;20047;-74
2021/11/14 09:59:33;;;;;;;5.75;2.47;;;;;;;;;;5107395;28;20478;-74
2021/11/14 10:02:00;;;;;;;3.35;1.80;;;;;;;;;;5125807;28;20023;-75
2021/11/14 10:04:26;;;;;;;4.63;1.98;;;;;;;;;;5107556;28;20023;-75
2021/11/14 10:07:15;;;;;;;3.80;2.10;;;;;;;;;;5125641;28;20035;-76
2021/11/14 10:09:49;;;;;;;4.30;1.90;;;;;;;;;;5126143;28;20023;-76
2021/11/14 10:12:27;;;;;;;4.28;2.20;;;;;;;;;;5125829;28;20024;-75
2021/11/14 10:15:08;;;;;;;3.15;2.10;;;;;;;;;;5107356;28;20118;-76
2021/11/14 10:17:35;;;;;;;3.08;1.88;;;;;;;;;;5125670;28;20034;-75
2021/11/14 10:20:17;;;;;;;3.53;2.03;;;;;;;;;;5106892;28;20028;-76
2021/11/14 10:22:46;;;;;;;4.43;2.13;;;;;;;;;;5107136;28;20023;-75
2021/11/14 10:25:13;;;;;;;4.00;2.13;;;;;;;;;;5107175;28;20039;-75
2021/11/14 10:27:39;;;;;;;3.10;1.73;;;;;;;;;;5125480;28;20039;-75
2021/11/14 10:30:13;;;;;;;3.35;2.25;;;;;;;;;;5125265;28;20020;-74
2021/11/14 10:32:40;;;;;;;2.83;1.70;;;;;;;;;;5106789;28;20034;-77
2021/11/14 10:35:07;;;;;;;3.20;1.70;;;;;;;;;;5106720;28;20091;-75
2021/11/14 10:37:43;;;;;;;3.13;1.92;;;;;;;;;;5125095;28;20061;-75
2021/11/14 10:40:17;;;;;;;2.75;1.80;;;;;;;;;;5125134;28;20015;-75
2021/11/14 10:42:45;;;;;;;2.22;1.52;;;;;;;;;;5124398;28;20367;-73
2021/11/14 10:45:10;;;;;;;3.75;1.70;;;;;;;;;;5125304;28;20050;-75
2021/11/14 10:47:36;;;;;;;2.67;1.60;;;;;;;;;;5124402;28;20023;-74
2021/11/14 10:50:07;;;;;;;5.15;2.00;;;;;;;;;;5124908;28;20019;-75
2021/11/14 10:52:34;;;;;;;3.22;1.80;;;;;;;;;;5124724;28;20042;-74
2021/11/14 10:55:04;;;;;;;1.90;1.33;;;;;;;;;;5124176;28;20048;-77
2021/11/14 10:57:32;;;;;;;2.03;1.20;;;;;;;;;;5124798;28;20016;-75
2021/11/14 10:59:59;;;;;;;3.17;1.60;;;;;;;;;;5124910;28;20075;-74
2021/11/14 11:02:27;;;;;;;2.38;1.60;;;;;;;;;;5106169;28;20623;-75
2021/11/14 11:05:07;;;;;;;1.92;1.30;;;;;;;;;;5106308;28;20028;-75
2021/11/14 11:07:32;;;;;;;2.55;1.42;;;;;;;;;;5105978;28;20083;-75
2021/11/14 11:09:57;;;;;;;4.25;1.42;;;;;;;;;;5124767;28;20110;-75
2021/11/14 11:12:26;;;;;;;2.60;1.42;;;;;;;;;;5106011;28;20031;-75
2021/11/14 11:15:04;;;;;;;1.83;1.17;;;;;;;;;;5124544;28;20023;-74
2021/11/14 11:17:46;;;;;;;2.10;1.33;;;;;;;;;;5124493;28;20350;-75
2021/11/14 11:20:13;;;;;;;1.73;1.23;;;;;;;;;;5106102;28;20283;-75
2021/11/14 11:22:57;;;;;;;3.03;1.65;;;;;;;;;;5124471;28;20045;-73
2021/11/14 11:25:31;;;;;;;2.08;1.50;;;;;;;;;;5106006;28;20039;-75
2021/11/14 11:27:57;;;;;;;3.15;1.27;;;;;;;;;;5105780;28;20023;-74
2021/11/14 11:30:33;;;;;;;3.13;1.25;;;;;;;;;;5124452;28;20031;-73
2021/11/14 11:32:59;;;;;;;2.80;1.42;;;;;;;;;;5105830;28;20369;-74
2021/11/14 11:35:25;;;;;;;2.08;1.10;;;;;;;;;;5105924;28;20424;-74
2021/11/14 11:37:52;;;;;;;2.08;1.10;;;;;;;;;;5124153;28;20040;-74
2021/11/14 11:40:18;;;;;;;2.00;1.10;;;;;;;;;;5124179;28;20023;-75
2021/11/14 11:42:44;;;;;;;4.75;1.60;;;;;;;;;;5123566;28;20035;-74
2021/11/14 11:45:10;;;;;;;2.45;1.50;;;;;;;;;;5123711;28;20067;-75
2021/11/14 11:47:39;;;;;;;3.47;1.35;;;;;;;;;;5124335;28;20028;-76
2021/11/14 11:50:06;;;;;;;3.88;1.38;;;;;;;;;;5106142;28;20192;-74
2021/11/14 11:52:40;;;;;;;2.47;1.05;;;;;;;;;;5106069;28;20019;-74
2021/11/14 11:55:16;;;;;;;;;;;;;;;;;;5106494;28;20055;-75
2021/11/14 11:57:42;;;;;;;2.55;1.10;;;;;;;;;;5124313;28;19908;-75
2021/11/14 12:00:08;;;;;;;2.30;1.20;;;;;;;;;;5106344;28;20027;-75
2021/11/14 12:02:33;;;;;;;2.38;1.10;;;;;;;;;;5124658;28;20019;-75
2021/11/14 12:05:28;;;;;;;2.05;1.20;;;;;;;;;;5124177;28;20094;-76
2021/11/14 12:07:54;;;;;;;2.13;1.02;;;;;;;;;;5105099;28;20031;-75
2021/11/14 12:10:26;;;;;;;2.78;0.90;;;;;;;;;;5104816;28;20038;-75
2021/11/14 12:12:53;;;;;;;2.03;1.17;;;;;;;;;;5124025;28;20062;-78
2021/11/14 12:15:20;;;;;;;1.50;1.08;;;;;;;;;;5105450;28;20035;-74
2021/11/14 12:17:57;;;;;;;2.67;1.15;;;;;;;;;;5104683;28;20030;-75
2021/11/14 12:20:29;;;;;;;3.03;0.90;;;;;;;;;;5123921;28;20103;-75
2021/11/14 12:23:17;;;;;;;2.25;1.10;;;;;;;;;;5105362;28;20024;-75
2021/11/14 12:25:46;;;;;;;1.98;1.30;;;;;;;;;;5123134;28;20036;-76
2021/11/14 12:28:19;;;;;;;2.65;1.30;;;;;;;;;;5123959;28;20083;-76
2021/11/14 12:31:05;;;;;;;1.75;1.00;;;;;;;;;;5105151;28;20028;-75
2021/11/14 12:33:36;;;;;;;1.30;1.00;;;;;;;;;;5105063;28;20114;-75
2021/11/14 12:36:17;;;;;;;2.05;1.10;;;;;;;;;;5105585;28;20024;-75
2021/11/14 12:38:44;;;;;;;3.08;1.08;;;;;;;;;;5123938;28;20034;-75
2021/11/14 12:41:12;;;;;;;1.25;0.98;;;;;;;;;;5124169;28;20054;-76
2021/11/14 12:43:51;;;;;;;1.77;1.20;;;;;;;;;;5124135;28;20026;-76
2021/11/14 12:46:23;;;;;;;3.42;1.20;;;;;;;;;;5124213;28;20023;-76
2021/11/14 12:48:49;;;;;;;1.42;0.95;;;;;;;;;;5124116;28;20115;-75
2021/11/14 12:51:22;;;;;;;1.77;1.05;;;;;;;;;;5123960;28;20440;-75
2021/11/14 12:53:47;;;;;;;2.28;1.23;;;;;;;;;;5123573;28;20027;-76
2021/11/14 12:56:14;;;;;;;2.55;1.00;;;;;;;;;;5123160;28;20048;-74
2021/11/14 12:58:40;;;;;;;3.00;1.10;;;;;;;;;;5104157;28;20419;-76
2021/11/14 13:01:06;;;;;;;1.27;0.90;;;;;;;;;;5122883;28;20083;-76
2021/11/14 13:03:36;;;;;;;1.80;1.10;;;;;;;;;;5104800;28;20483;-76
2021/11/14 13:06:04;;;;;;;1.40;0.93;;;;;;;;;;5123244;28;20034;-75
2021/11/14 13:08:34;;;;;;;2.05;1.10;;;;;;;;;;5123486;28;20042;-77
2021/11/14 13:11:07;;;;;;;1.98;1.02;;;;;;;;;;5122728;28;20517;-75
2021/11/14 13:13:36;;;;;;;2.63;1.10;;;;;;;;;;5105045;28;20019;-76
2021/11/14 13:16:04;;;;;;;3.30;1.10;;;;;;;;;;5104825;28;20473;-77
2021/11/14 13:18:32;;;;;;;1.83;1.02;;;;;;;;;;5123425;28;20061;-74
2021/11/14 13:21:03;;;;;;;1.88;0.93;;;;;;;;;;5123269;28;20027;-73
2021/11/14 13:23:28;;;;;;;2.08;1.10;;;;;;;;;;5123213;28;20023;-75
2021/11/14 13:26:09;;;;;;;1.52;1.00;;;;;;;;;;5104530;28;20157;-74
2021/11/14 13:28:38;;;;;;;1.92;1.05;;;;;;;;;;5123269;28;20436;-75
2021/11/14 13:31:15;;;;;;;1.85;1.08;;;;;;;;;;5125523;28;20032;-74
2021/11/14 13:33:40;;;;;;;2.97;1.20;;;;;;;;;;5126936;28;20103;-74
2021/11/14 13:36:12;;;;;;;2.33;1.00;;;;;;;;;;5126316;28;20047;-73
2021/11/14 13:38:43;;;;;;;2.50;1.20;;;;;;;;;;5126654;28;20023;-73
2021/11/14 13:41:20;;;;;;;1.98;0.95;;;;;;;;;;5107828;28;20047;-75
2021/11/14 13:43:53;;;;;;;2.63;1.13;;;;;;;;;;5108281;28;20016;-74
2021/11/14 13:46:19;;;;;;;1.38;0.82;;;;;;;;;;5108019;28;20118;-75
2021/11/14 13:48:49;;;;;;;1.55;1.00;;;;;;;;;;5126422;28;20027;-74
2021/11/14 13:51:15;;;;;;;2.08;0.82;;;;;;;;;;5126346;28;20034;-74
2021/11/14 13:53:43;;;;;;;2.55;1.10;;;;;;;;;;5142072;27;20019;-74
2021/11/14 13:56:08;;;;;;;1.75;0.90;;;;;;;;;;5107039;28;20047;-75
2021/11/14 13:58:44;;;;;;;1.95;1.15;;;;;;;;;;5108116;28;20115;-73
2021/11/14 14:01:10;;;;;;;1.33;0.82;;;;;;;;;;5125845;28;20028;-74
2021/11/14 14:03:45;;;;;;;1.23;0.82;;;;;;;;;;5107782;28;20048;-73
2021/11/14 14:06:11;;;;;;;1.35;0.75;;;;;;;;;;5125929;28;20069;-74
2021/11/14 14:08:37;;;;;;;1.67;0.90;;;;;;;;;;5107821;28;20462;-74
2021/11/14 14:11:05;;;;;;;1.60;0.90;;;;;;;;;;5125960;28;20024;-74
2021/11/14 14:13:33;;;;;;;1.90;1.00;;;;;;;;;;5125966;28;20110;-74
2021/11/14 14:16:00;;;;;;;1.65;1.10;;;;;;;;;;5107510;28;20024;-74
2021/11/14 14:18:27;;;;;;;2.95;1.17;;;;;;;;;;5107429;28;20020;-74
2021/11/14 14:20:56;;;;;;;2.25;1.13;;;;;;;;;;5107478;28;20410;-73
2021/11/14 14:23:23;;;;;;;3.08;0.95;;;;;;;;;;5125887;28;20043;-74
2021/11/14 14:25:49;;;;;;;1.67;1.10;;;;;;;;;;5125584;28;20019;-75
2021/11/14 14:28:19;;;;;;;1.80;0.98;;;;;;;;;;5125825;28;20077;-74
2021/11/14 14:30:46;;;;;;;2.42;0.95;;;;;;;;;;5125041;28;20027;-74
2021/11/14 14:33:16;;;;;;;3.65;0.98;;;;;;;;;;5106562;28;20126;-74
2021/11/14 14:35:49;;;;;;;1.10;0.80;;;;;;;;;;5125112;28;20047;-75
2021/11/14 14:38:19;;;;;;;1.30;0.90;;;;;;;;;;5125305;28;20531;-75
2021/11/14 14:41:10;;;;;;;1.35;0.90;;;;;;;;;;5106240;28;20027;-74